sensor_id;sensor_type;location;lat;lon;timestamp;pressure;altitude;pressure_sealevel;temperature;humidity
14242;BME280;7205;50.864;12.766;2022-10-15T00:01:03;97098.06;;;15.19;100.00
14242;BME280;7205;50.864;12.766;2022-10-15T00:03:30;97101.50;;;15.19;100.00
14242;BME280;7205;50.864;12.766;2022-10-15T00:06:03;97097.25;;;15.18;100.00
14242;BME280;7205;50.864;12.766;2022-10-15T00:08:30;97095.41;;;15.19;100.00
14242;BME280;7205;50.864;12.766;2022-10-15T00:11:01;97092.75;;;15.19;100.00
14242;BME280;7205;50.864;12.766;2022-10-15T00:13:28;97091.09;;;15.18;100.00
14242;BME280;7205;50.864;12.766;2022-10-15T00:15:57;97086.00;;;15.16;100.00
14242;BME280;7205;50.864;12.766;2022-10-15T00:18:24;97078.63;;;15.18;100.00
14242;BME280;7205;50.864;12.766;2022-10-15T00:20:51;97073.28;;;15.18;100.00
14242;BME280;7205;50.864;12.766;2022-10-15T00:23:17;97072.47;;;15.18;100.00
14242;BME280;7205;50.864;12.766;2022-10-15T00:25:44;97077.56;;;15.19;100.00
14242;BME280;7205;50.864;12.766;2022-10-15T00:28:11;97075.13;;;15.18;100.00
14242;BME280;7205;50.864;12.766;2022-10-15T00:30:38;97077.78;;;15.18;100.00
14242;BME280;7205;50.864;12.766;2022-10-15T00:33:07;97076.97;;;15.17;100.00
14242;BME280;7205;50.864;12.766;2022-10-15T00:35:33;97077.78;;;15.18;100.00
14242;BME280;7205;50.864;12.766;2022-10-15T00:38:03;97078.84;;;15.17;100.00
14242;BME280;7205;50.864;12.766;2022-10-15T00:40:29;97076.97;;;15.17;100.00
14242;BME280;7205;50.864;12.766;2022-10-15T00:42:56;97071.88;;;15.16;100.00
14242;BME280;7205;50.864;12.766;2022-10-15T00:45:23;97067.59;;;15.15;100.00
14242;BME280;7205;50.864;12.766;2022-10-15T00:47:50;97060.66;;;15.14;100.00
14242;BME280;7205;50.864;12.766;2022-10-15T00:50:21;97061.69;;;15.13;100.00
14242;BME280;7205;50.864;12.766;2022-10-15T00:52:57;97058.41;;;15.10;100.00
14242;BME280;7205;50.864;12.766;2022-10-15T00:55:29;97061.91;;;15.11;100.00
14242;BME280;7205;50.864;12.766;2022-10-15T00:57:59;97056.81;;;15.09;100.00
14242;BME280;7205;50.864;12.766;2022-10-15T01:00:28;97067.44;;;15.09;100.00
14242;BME280;7205;50.864;12.766;2022-10-15T01:02:55;97063.16;;;15.08;100.00
14242;BME280;7205;50.864;12.766;2022-10-15T01:05:23;97060.50;;;15.08;100.00
14242;BME280;7205;50.864;12.766;2022-10-15T01:07:50;97056.81;;;15.09;100.00
14242;BME280;7205;50.864;12.766;2022-10-15T01:10:19;97048.00;;;15.09;100.00
14242;BME280;7205;50.864;12.766;2022-10-15T01:13:04;97048.81;;;15.09;100.00
14242;BME280;7205;50.864;12.766;2022-10-15T01:15:39;97041.06;;;15.08;100.00
14242;BME280;7205;50.864;12.766;2022-10-15T01:18:12;97034.91;;;15.07;100.00
14242;BME280;7205;50.864;12.766;2022-10-15T01:21:02;97032.69;;;15.04;100.00
14242;BME280;7205;50.864;12.766;2022-10-15T01:24:04;97033.53;;;15.05;100.00
14242;BME280;7205;50.864;12.766;2022-10-15T01:26:57;97033.53;;;15.05;100.00
14242;BME280;7205;50.864;12.766;2022-10-15T01:29:47;97038.84;;;15.05;100.00
14242;BME280;7205;50.864;12.766;2022-10-15T01:32:26;97040.47;;;15.06;100.00
14242;BME280;7205;50.864;12.766;2022-10-15T01:34:55;97041.06;;;15.08;100.00
14242;BME280;7205;50.864;12.766;2022-10-15T01:37:35;97045.56;;;15.07;100.00
14242;BME280;7205;50.864;12.766;2022-10-15T01:40:06;97041.88;;;15.08;100.00
14242;BME280;7205;50.864;12.766;2022-10-15T01:42:41;97039.22;;;15.08;100.00
14242;BME280;7205;50.864;12.766;2022-10-15T01:45:16;97034.47;;;15.10;100.00
14242;BME280;7205;50.864;12.766;2022-10-15T01:48:09;97028.38;;;15.10;100.00
14242;BME280;7205;50.864;12.766;2022-10-15T01:50:39;97027.31;;;15.11;100.00
14242;BME280;7205;50.864;12.766;2022-10-15T01:53:10;97024.66;;;15.11;100.00
14242;BME280;7205;50.864;12.766;2022-10-15T01:55:41;97036.91;;;15.12;100.00
14242;BME280;7205;50.864;12.766;2022-10-15T01:58:10;97030.59;;;15.13;100.00
14242;BME280;7205;50.864;12.766;2022-10-15T02:00:40;97027.69;;;15.15;100.00
14242;BME280;7205;50.864;12.766;2022-10-15T02:03:10;97029.31;;;15.16;100.00
14242;BME280;7205;50.864;12.766;2022-10-15T02:05:41;97030.16;;;15.16;100.00
14242;BME280;7205;50.864;12.766;2022-10-15T02:08:18;97025.88;;;15.15;100.00
14242;BME280;7205;50.864;12.766;2022-10-15T02:10:55;97030.16;;;15.16;100.00
14242;BME280;7205;50.864;12.766;2022-10-15T02:13:30;97013.38;;;15.16;100.00
14242;BME280;7205;50.864;12.766;2022-10-15T02:16:04;97013.38;;;15.16;100.00
14242;BME280;7205;50.864;12.766;2022-10-15T02:18:39;97008.03;;;15.16;100.00
14242;BME280;7205;50.864;12.766;2022-10-15T02:21:09;97016.63;;;15.18;100.00
14242;BME280;7205;50.864;12.766;2022-10-15T02:23:41;97004.16;;;15.18;100.00
14242;BME280;7205;50.864;12.766;2022-10-15T02:26:11;96999.66;;;15.19;100.00
14242;BME280;7205;50.864;12.766;2022-10-15T02:28:42;96998.81;;;15.18;100.00
14242;BME280;7205;50.864;12.766;2022-10-15T02:31:11;96994.09;;;15.20;100.00
14242;BME280;7205;50.864;12.766;2022-10-15T02:33:43;96993.06;;;15.21;100.00
14242;BME280;7205;50.864;12.766;2022-10-15T02:36:12;96990.41;;;15.21;100.00
14242;BME280;7205;50.864;12.766;2022-10-15T02:38:42;96989.34;;;15.22;100.00
14242;BME280;7205;50.864;12.766;2022-10-15T02:41:10;96990.19;;;15.23;100.00
14242;BME280;7205;50.864;12.766;2022-10-15T02:43:39;96986.28;;;15.25;100.00
14242;BME280;7205;50.864;12.766;2022-10-15T02:46:06;96982.56;;;15.26;100.00
14242;BME280;7205;50.864;12.766;2022-10-15T02:48:36;96972.53;;;15.28;100.00
14242;BME280;7205;50.864;12.766;2022-10-15T02:51:04;96975.78;;;15.30;100.00
14242;BME280;7205;50.864;12.766;2022-10-15T02:53:31;96976.38;;;15.32;100.00
14242;BME280;7205;50.864;12.766;2022-10-15T02:55:58;96977.78;;;15.35;100.00
14242;BME280;7205;50.864;12.766;2022-10-15T02:58:25;96972.25;;;15.36;100.00
14242;BME280;7205;50.864;12.766;2022-10-15T03:00:54;96971.81;;;15.39;100.00
14242;BME280;7205;50.864;12.766;2022-10-15T03:03:21;96963.84;;;15.39;100.00
14242;BME280;7205;50.864;12.766;2022-10-15T03:05:47;96964.66;;;15.40;100.00
14242;BME280;7205;50.864;12.766;2022-10-15T03:08:16;96957.50;;;15.40;100.00
14242;BME280;7205;50.864;12.766;2022-10-15T03:10:44;96956.69;;;15.40;100.00
14242;BME280;7205;50.864;12.766;2022-10-15T03:13:11;96954.22;;;15.38;100.00
14242;BME280;7205;50.864;12.766;2022-10-15T03:15:45;96957.88;;;15.37;100.00
14242;BME280;7205;50.864;12.766;2022-10-15T03:18:14;96953.38;;;15.38;100.00
14242;BME280;7205;50.864;12.766;2022-10-15T03:20:41;96948.06;;;15.38;100.00
14242;BME280;7205;50.864;12.766;2022-10-15T03:23:08;96947.25;;;15.37;100.00
14242;BME280;7205;50.864;12.766;2022-10-15T03:25:36;96944.03;;;15.35;100.00
14242;BME280;7205;50.864;12.766;2022-10-15T03:28:04;96940.53;;;15.35;100.00
14242;BME280;7205;50.864;12.766;2022-10-15T03:30:36;96937.28;;;15.33;100.00
14242;BME280;7205;50.864;12.766;2022-10-15T03:33:03;96935.91;;;15.30;100.00
14242;BME280;7205;50.864;12.766;2022-10-15T03:35:31;96936.13;;;15.29;100.00
14242;BME280;7205;50.864;12.766;2022-10-15T03:37:58;96943.28;;;15.28;100.00
14242;BME280;7205;50.864;12.766;2022-10-15T03:40:25;96946.94;;;15.27;100.00
14242;BME280;7205;50.864;12.766;2022-10-15T03:42:57;96939.19;;;15.26;100.00
14242;BME280;7205;50.864;12.766;2022-10-15T03:45:25;96949.03;;;15.25;100.00
14242;BME280;7205;50.864;12.766;2022-10-15T03:48:09;96948.22;;;15.25;100.00
14242;BME280;7205;50.864;12.766;2022-10-15T03:50:36;96949.03;;;15.25;100.00
14242;BME280;7205;50.864;12.766;2022-10-15T03:53:04;96949.47;;;15.22;100.00
14242;BME280;7205;50.864;12.766;2022-10-15T03:55:31;96951.72;;;15.25;100.00
14242;BME280;7205;50.864;12.766;2022-10-15T03:57:59;96943.72;;;15.25;100.00
14242;BME280;7205;50.864;12.766;2022-10-15T04:00:27;96941.06;;;15.25;100.00
14242;BME280;7205;50.864;12.766;2022-10-15T04:02:57;96949.03;;;15.25;100.00
14242;BME280;7205;50.864;12.766;2022-10-15T04:05:26;96954.38;;;15.25;100.00
14242;BME280;7205;50.864;12.766;2022-10-15T04:08:02;96951.72;;;15.25;100.00
14242;BME280;7205;50.864;12.766;2022-10-15T04:10:32;96952.50;;;15.26;100.00
14242;BME280;7205;50.864;12.766;2022-10-15T04:13:01;96947.78;;;15.28;100.00
14242;BME280;7205;50.864;12.766;2022-10-15T04:15:30;96947.53;;;15.29;100.00
14242;BME280;7205;50.864;12.766;2022-10-15T04:18:02;96940.16;;;15.31;100.00
14242;BME280;7205;50.864;12.766;2022-10-15T04:20:29;96944.25;;;15.34;100.00
14242;BME280;7205;50.864;12.766;2022-10-15T04:23:08;96942.16;;;15.36;100.00
14242;BME280;7205;50.864;12.766;2022-10-15T04:25:37;96940.09;;;15.38;100.00
14242;BME280;7205;50.864;12.766;2022-10-15T04:28:07;96948.47;;;15.41;100.00
14242;BME280;7205;50.864;12.766;2022-10-15T04:30:37;96943.97;;;15.42;100.00
14242;BME280;7205;50.864;12.766;2022-10-15T04:33:07;96953.34;;;15.44;100.00
14242;BME280;7205;50.864;12.766;2022-10-15T04:35:35;96947.22;;;15.44;100.00
14242;BME280;7205;50.864;12.766;2022-10-15T04:38:08;96951.72;;;15.43;100.00
14242;BME280;7205;50.864;12.766;2022-10-15T04:40:58;96953.34;;;15.44;100.00
14242;BME280;7205;50.864;12.766;2022-10-15T04:43:34;96949.06;;;15.43;100.00
14242;BME280;7205;50.864;12.766;2022-10-15T04:46:06;96950.91;;;15.43;100.00
14242;BME280;7205;50.864;12.766;2022-10-15T04:48:36;96949.28;;;15.42;100.00
14242;BME280;7205;50.864;12.766;2022-10-15T04:51:08;96951.97;;;15.42;100.00
14242;BME280;7205;50.864;12.766;2022-10-15T04:53:58;96948.69;;;15.40;100.00
14242;BME280;7205;50.864;12.766;2022-10-15T04:56:26;96939.06;;;15.39;100.00
14242;BME280;7205;50.864;12.766;2022-10-15T04:58:55;96942.56;;;15.39;100.00
14242;BME280;7205;50.864;12.766;2022-10-15T05:01:25;96940.09;;;15.38;100.00
14242;BME280;7205;50.864;12.766;2022-10-15T05:04:04;96942.16;;;15.36;100.00
14242;BME280;7205;50.864;12.766;2022-10-15T05:06:32;96943.19;;;15.35;100.00
14242;BME280;7205;50.864;12.766;2022-10-15T05:09:13;96947.69;;;15.34;100.00
14242;BME280;7205;50.864;12.766;2022-10-15T05:11:46;96951.19;;;15.35;100.00
14242;BME280;7205;50.864;12.766;2022-10-15T05:14:14;96949.34;;;15.35;100.00
14242;BME280;7205;50.864;12.766;2022-10-15T05:16:41;96953.63;;;15.36;100.00
14242;BME280;7205;50.864;12.766;2022-10-15T05:19:09;96953.63;;;15.36;100.00
14242;BME280;7205;50.864;12.766;2022-10-15T05:21:39;96948.06;;;15.38;100.00
14242;BME280;7205;50.864;12.766;2022-10-15T05:24:13;96950.72;;;15.38;100.00
14242;BME280;7205;50.864;12.766;2022-10-15T05:26:52;96947.06;;;15.39;100.00
14242;BME280;7205;50.864;12.766;2022-10-15T05:29:22;96946.84;;;15.40;100.00
14242;BME280;7205;50.864;12.766;2022-10-15T05:31:49;96944.19;;;15.40;100.00
14242;BME280;7205;50.864;12.766;2022-10-15T05:34:19;96957.50;;;15.40;100.00
14242;BME280;7205;50.864;12.766;2022-10-15T05:36:57;96947.66;;;15.41;100.00
14242;BME280;7205;50.864;12.766;2022-10-15T05:39:24;96961.56;;;15.43;100.00
14242;BME280;7205;50.864;12.766;2022-10-15T05:41:52;96961.56;;;15.43;100.00
14242;BME280;7205;50.864;12.766;2022-10-15T05:44:29;96954.16;;;15.45;100.00
14242;BME280;7205;50.864;12.766;2022-10-15T05:46:57;96954.16;;;15.45;100.00
14242;BME280;7205;50.864;12.766;2022-10-15T05:49:24;96946.78;;;15.47;100.00
14242;BME280;7205;50.864;12.766;2022-10-15T05:52:02;96951.88;;;15.48;100.00
14242;BME280;7205;50.864;12.766;2022-10-15T05:54:52;96952.91;;;15.47;100.00
14242;BME280;7205;50.864;12.766;2022-10-15T05:57:20;96954.09;;;15.51;100.00
14242;BME280;7205;50.864;12.766;2022-10-15T05:59:48;96954.09;;;15.51;100.00
14242;BME280;7205;50.864;12.766;2022-10-15T06:02:15;96955.72;;;15.52;100.00
14242;BME280;7205;50.864;12.766;2022-10-15T06:04:42;96953.84;;;15.53;100.00
14242;BME280;7205;50.864;12.766;2022-10-15T06:07:09;96955.88;;;15.57;100.00
14242;BME280;7205;50.864;12.766;2022-10-15T06:09:36;96944.19;;;15.58;100.00
14242;BME280;7205;50.864;12.766;2022-10-15T06:12:03;96941.06;;;15.61;100.00
14242;BME280;7205;50.864;12.766;2022-10-15T06:14:30;96941.44;;;15.65;100.00
14242;BME280;7205;50.864;12.766;2022-10-15T06:16:58;96940.19;;;15.67;100.00
14242;BME280;7205;50.864;12.766;2022-10-15T06:19:25;96948.31;;;15.72;100.00
14242;BME280;7205;50.864;12.766;2022-10-15T06:21:52;96953.97;;;15.76;100.00
14242;BME280;7205;50.864;12.766;2022-10-15T06:24:19;96964.75;;;15.81;100.00
14242;BME280;7205;50.864;12.766;2022-10-15T06:26:45;96963.28;;;15.85;100.00
14242;BME280;7205;50.864;12.766;2022-10-15T06:29:12;96964.47;;;15.89;100.00
14242;BME280;7205;50.864;12.766;2022-10-15T06:31:39;96963.78;;;15.93;100.00
14242;BME280;7205;50.864;12.766;2022-10-15T06:34:07;96978.63;;;16.01;100.00
14242;BME280;7205;50.864;12.766;2022-10-15T06:36:34;96973.25;;;16.07;100.00
14242;BME280;7205;50.864;12.766;2022-10-15T06:39:01;96977.19;;;16.16;100.00
14242;BME280;7205;50.864;12.766;2022-10-15T06:41:28;96972.38;;;16.25;100.00
14242;BME280;7205;50.864;12.766;2022-10-15T06:43:55;96971.25;;;16.33;100.00
14242;BME280;7205;50.864;12.766;2022-10-15T06:46:21;96968.47;;;16.39;100.00
14242;BME280;7205;50.864;12.766;2022-10-15T06:48:48;96974.97;;;16.43;100.00
14242;BME280;7205;50.864;12.766;2022-10-15T06:51:17;96968.19;;;16.47;100.00
14242;BME280;7205;50.864;12.766;2022-10-15T06:53:48;96975.72;;;16.50;100.00
14242;BME280;7205;50.864;12.766;2022-10-15T06:56:15;96983.25;;;16.53;100.00
14242;BME280;7205;50.864;12.766;2022-10-15T06:58:43;96980.13;;;16.56;100.00
14242;BME280;7205;50.864;12.766;2022-10-15T07:01:10;96975.97;;;16.60;100.00
14242;BME280;7205;50.864;12.766;2022-10-15T07:03:37;96983.72;;;16.62;100.00
14242;BME280;7205;50.864;12.766;2022-10-15T07:06:06;96979.00;;;16.64;100.00
14242;BME280;7205;50.864;12.766;2022-10-15T07:08:35;96980.97;;;16.68;100.00
14242;BME280;7205;50.864;12.766;2022-10-15T07:11:03;96980.06;;;16.74;100.00
14242;BME280;7205;50.864;12.766;2022-10-15T07:13:31;96982.03;;;16.79;100.00
14242;BME280;7205;50.864;12.766;2022-10-15T07:16:02;96984.22;;;16.82;100.00
14242;BME280;7205;50.864;12.766;2022-10-15T07:18:31;96986.44;;;16.85;99.94
14242;BME280;7205;50.864;12.766;2022-10-15T07:20:58;96988.66;;;16.88;99.67
14242;BME280;7205;50.864;12.766;2022-10-15T07:23:25;96998.84;;;16.91;99.51
14242;BME280;7205;50.864;12.766;2022-10-15T07:25:53;97003.72;;;16.94;99.24
14242;BME280;7205;50.864;12.766;2022-10-15T07:28:20;97007.78;;;16.96;99.00
14242;BME280;7205;50.864;12.766;2022-10-15T07:30:47;97014.50;;;16.99;98.87
14242;BME280;7205;50.864;12.766;2022-10-15T07:33:14;97015.69;;;17.03;98.49
14242;BME280;7205;50.864;12.766;2022-10-15T07:35:49;97016.25;;;17.05;98.17
14242;BME280;7205;50.864;12.766;2022-10-15T07:38:16;97019.28;;;17.08;98.09
14242;BME280;7205;50.864;12.766;2022-10-15T07:40:43;97022.53;;;17.10;97.70
14242;BME280;7205;50.864;12.766;2022-10-15T07:43:11;97029.03;;;17.14;97.31
14242;BME280;7205;50.864;12.766;2022-10-15T07:45:39;97024.06;;;17.18;97.20
14242;BME280;7205;50.864;12.766;2022-10-15T07:48:05;97031.13;;;17.24;97.41
14242;BME280;7205;50.864;12.766;2022-10-15T07:50:32;97030.19;;;17.30;97.41
14242;BME280;7205;50.864;12.766;2022-10-15T07:53:00;97033.06;;;17.40;97.43
14242;BME280;7205;50.864;12.766;2022-10-15T07:55:27;97029.53;;;17.46;97.66
14242;BME280;7205;50.864;12.766;2022-10-15T07:57:55;97036.13;;;17.55;98.01
14242;BME280;7205;50.864;12.766;2022-10-15T08:00:24;97033.22;;;17.68;98.55
14242;BME280;7205;50.864;12.766;2022-10-15T08:02:51;97035.41;;;17.83;99.18
14242;BME280;7205;50.864;12.766;2022-10-15T08:05:18;97030.13;;;17.99;99.31
14242;BME280;7205;50.864;12.766;2022-10-15T08:07:45;97036.84;;;18.13;98.70
14242;BME280;7205;50.864;12.766;2022-10-15T08:10:12;97040.50;;;18.24;97.98
14242;BME280;7205;50.864;12.766;2022-10-15T08:12:39;97042.81;;;18.32;97.29
14242;BME280;7205;50.864;12.766;2022-10-15T08:15:07;97041.03;;;18.37;96.95
14242;BME280;7205;50.864;12.766;2022-10-15T08:17:35;97039.31;;;18.43;96.41
14242;BME280;7205;50.864;12.766;2022-10-15T08:20:02;97037.78;;;18.47;96.24
14242;BME280;7205;50.864;12.766;2022-10-15T08:22:30;97030.91;;;18.51;95.58
14242;BME280;7205;50.864;12.766;2022-10-15T08:24:57;97034.72;;;18.55;94.77
14242;BME280;7205;50.864;12.766;2022-10-15T08:27:23;97035.06;;;18.58;94.53
14242;BME280;7205;50.864;12.766;2022-10-15T08:29:55;97034.34;;;18.63;94.20
14242;BME280;7205;50.864;12.766;2022-10-15T08:32:22;97038.72;;;18.69;94.16
14242;BME280;7205;50.864;12.766;2022-10-15T08:34:50;97042.28;;;18.74;93.81
14242;BME280;7205;50.864;12.766;2022-10-15T08:37:17;97040.91;;;18.72;92.75
14242;BME280;7205;50.864;12.766;2022-10-15T08:39:44;97042.34;;;18.63;92.05
14242;BME280;7205;50.864;12.766;2022-10-15T08:42:15;97048.34;;;18.53;91.79
14242;BME280;7205;50.864;12.766;2022-10-15T08:44:46;97048.41;;;18.42;91.60
14242;BME280;7205;50.864;12.766;2022-10-15T08:47:24;97058.97;;;18.25;91.57
14242;BME280;7205;50.864;12.766;2022-10-15T08:49:56;97049.13;;;18.14;92.17
14242;BME280;7205;50.864;12.766;2022-10-15T08:52:37;97055.78;;;18.12;93.69
14242;BME280;7205;50.864;12.766;2022-10-15T08:55:09;97059.00;;;18.14;94.49
14242;BME280;7205;50.864;12.766;2022-10-15T08:57:42;97058.22;;;18.13;94.66
14242;BME280;7205;50.864;12.766;2022-10-15T09:00:16;97069.00;;;18.18;95.54
14242;BME280;7205;50.864;12.766;2022-10-15T09:02:49;97074.22;;;18.25;95.84
14242;BME280;7205;50.864;12.766;2022-10-15T09:05:29;97073.59;;;18.34;96.20
14242;BME280;7205;50.864;12.766;2022-10-15T09:08:04;97080.56;;;18.47;96.41
14242;BME280;7205;50.864;12.766;2022-10-15T09:10:38;97080.53;;;18.58;96.15
14242;BME280;7205;50.864;12.766;2022-10-15T09:13:12;97081.75;;;18.67;95.51
14242;BME280;7205;50.864;12.766;2022-10-15T09:15:47;97078.13;;;18.73;94.46
14242;BME280;7205;50.864;12.766;2022-10-15T09:18:19;97077.41;;;18.78;93.72
14242;BME280;7205;50.864;12.766;2022-10-15T09:20:49;97080.91;;;18.79;93.11
14242;BME280;7205;50.864;12.766;2022-10-15T09:23:18;97082.75;;;18.78;92.06
14242;BME280;7205;50.864;12.766;2022-10-15T09:25:51;97086.94;;;18.74;90.87
14242;BME280;7205;50.864;12.766;2022-10-15T09:28:25;97086.69;;;18.75;91.72
14242;BME280;7205;50.864;12.766;2022-10-15T09:30:56;97098.56;;;18.80;91.57
14242;BME280;7205;50.864;12.766;2022-10-15T09:33:34;97088.78;;;18.85;91.45
14242;BME280;7205;50.864;12.766;2022-10-15T09:36:17;97094.22;;;18.90;91.15
14242;BME280;7205;50.864;12.766;2022-10-15T09:38:53;97104.19;;;18.95;90.72
14242;BME280;7205;50.864;12.766;2022-10-15T09:41:32;97102.09;;;18.97;90.56
14242;BME280;7205;50.864;12.766;2022-10-15T09:44:02;97101.84;;;18.98;90.88
14242;BME280;7205;50.864;12.766;2022-10-15T09:46:43;97102.41;;;19.00;91.65
14242;BME280;7205;50.864;12.766;2022-10-15T09:49:13;97096.34;;;19.05;91.68
14242;BME280;7205;50.864;12.766;2022-10-15T09:51:55;97094.00;;;19.08;91.31
14242;BME280;7205;50.864;12.766;2022-10-15T09:54:30;97097.81;;;19.12;91.45
14242;BME280;7205;50.864;12.766;2022-10-15T09:57:02;97092.75;;;19.16;91.40
14242;BME280;7205;50.864;12.766;2022-10-15T09:59:29;97094.16;;;19.18;91.20
14242;BME280;7205;50.864;12.766;2022-10-15T10:01:59;97104.22;;;19.28;91.71
14242;BME280;7205;50.864;12.766;2022-10-15T10:04:29;97105.81;;;19.40;92.37
14242;BME280;7205;50.864;12.766;2022-10-15T10:07:00;97106.84;;;19.56;91.47
14242;BME280;7205;50.864;12.766;2022-10-15T10:09:32;97100.09;;;19.70;90.57
14242;BME280;7205;50.864;12.766;2022-10-15T10:12:01;97095.19;;;19.83;89.39
14242;BME280;7205;50.864;12.766;2022-10-15T10:14:31;97096.94;;;19.94;88.34
14242;BME280;7205;50.864;12.766;2022-10-15T10:17:09;97097.84;;;20.00;86.69
14242;BME280;7205;50.864;12.766;2022-10-15T10:19:38;97092.78;;;20.04;85.29
14242;BME280;7205;50.864;12.766;2022-10-15T10:22:13;97095.03;;;20.12;85.65
14242;BME280;7205;50.864;12.766;2022-10-15T10:24:40;97091.63;;;20.16;83.84
14242;BME280;7205;50.864;12.766;2022-10-15T10:27:18;97095.03;;;20.12;82.45
14242;BME280;7205;50.864;12.766;2022-10-15T10:29:48;97099.84;;;20.10;82.12
14242;BME280;7205;50.864;12.766;2022-10-15T10:32:19;97098.66;;;20.01;81.32
14242;BME280;7205;50.864;12.766;2022-10-15T10:34:46;97093.66;;;19.87;80.71
14242;BME280;7205;50.864;12.766;2022-10-15T10:37:15;97104.78;;;19.79;81.42
14242;BME280;7205;50.864;12.766;2022-10-15T10:39:45;97108.19;;;19.75;82.12
14242;BME280;7205;50.864;12.766;2022-10-15T10:42:26;97107.63;;;19.73;82.02
14242;BME280;7205;50.864;12.766;2022-10-15T10:45:16;97112.13;;;19.67;82.04
14242;BME280;7205;50.864;12.766;2022-10-15T10:47:45;97102.44;;;19.66;82.36
14242;BME280;7205;50.864;12.766;2022-10-15T10:50:30;97109.91;;;19.64;82.98
14242;BME280;7205;50.864;12.766;2022-10-15T10:53:16;97110.81;;;19.70;84.19
14242;BME280;7205;50.864;12.766;2022-10-15T10:55:45;97109.34;;;19.79;84.13
14242;BME280;7205;50.864;12.766;2022-10-15T10:58:17;97101.38;;;19.84;83.55
14242;BME280;7205;50.864;12.766;2022-10-15T11:00:46;97107.59;;;19.89;83.39
14242;BME280;7205;50.864;12.766;2022-10-15T11:03:30;97100.94;;;19.92;82.98
14242;BME280;7205;50.864;12.766;2022-10-15T11:06:05;97108.00;;;19.98;82.99
14242;BME280;7205;50.864;12.766;2022-10-15T11:08:38;97101.09;;;20.02;82.17
14242;BME280;7205;50.864;12.766;2022-10-15T11:11:15;97098.22;;;20.09;82.27
14242;BME280;7205;50.864;12.766;2022-10-15T11:13:51;97101.31;;;20.17;82.36
14242;BME280;7205;50.864;12.766;2022-10-15T11:16:29;97095.19;;;20.22;81.68
14242;BME280;7205;50.864;12.766;2022-10-15T11:19:12;97097.38;;;20.25;81.19
14242;BME280;7205;50.864;12.766;2022-10-15T11:21:48;97097.94;;;20.27;81.11
14242;BME280;7205;50.864;12.766;2022-10-15T11:24:21;97095.56;;;20.30;81.08
14242;BME280;7205;50.864;12.766;2022-10-15T11:26:58;97101.50;;;20.32;80.39
14242;BME280;7205;50.864;12.766;2022-10-15T11:29:45;97107.69;;;20.33;80.17
14242;BME280;7205;50.864;12.766;2022-10-15T11:32:28;97100.19;;;20.35;80.58
14242;BME280;7205;50.864;12.766;2022-10-15T11:35:10;97098.38;;;20.40;80.54
14242;BME280;7205;50.864;12.766;2022-10-15T11:37:47;97105.13;;;20.43;79.83
14242;BME280;7205;50.864;12.766;2022-10-15T11:40:26;97098.13;;;20.42;79.60
14242;BME280;7205;50.864;12.766;2022-10-15T11:43:02;97107.81;;;20.43;79.68
14242;BME280;7205;50.864;12.766;2022-10-15T11:45:42;97103.25;;;20.43;79.64
14242;BME280;7205;50.864;12.766;2022-10-15T11:48:18;97106.75;;;20.44;79.30
14242;BME280;7205;50.864;12.766;2022-10-15T11:50:54;97107.31;;;20.46;79.88
14242;BME280;7205;50.864;12.766;2022-10-15T11:53:36;97108.25;;;20.56;80.47
14242;BME280;7205;50.864;12.766;2022-10-15T11:56:13;97110.84;;;20.73;80.39
14242;BME280;7205;50.864;12.766;2022-10-15T11:58:45;97107.75;;;20.86;79.72
14242;BME280;7205;50.864;12.766;2022-10-15T12:01:18;97102.00;;;20.99;79.18
14242;BME280;7205;50.864;12.766;2022-10-15T12:03:50;97096.44;;;21.05;77.12
14242;BME280;7205;50.864;12.766;2022-10-15T12:06:20;97088.13;;;21.07;76.07
14242;BME280;7205;50.864;12.766;2022-10-15T12:08:48;97085.69;;;21.05;75.18
14242;BME280;7205;50.864;12.766;2022-10-15T12:11:27;97092.66;;;21.01;74.91
14242;BME280;7205;50.864;12.766;2022-10-15T12:13:59;97092.94;;;21.05;75.34
14242;BME280;7205;50.864;12.766;2022-10-15T12:16:34;97089.75;;;21.08;74.80
14242;BME280;7205;50.864;12.766;2022-10-15T12:19:11;97080.38;;;21.10;74.59
14242;BME280;7205;50.864;12.766;2022-10-15T12:21:43;97089.53;;;21.14;74.42
14242;BME280;7205;50.864;12.766;2022-10-15T12:24:50;97079.06;;;21.13;73.87
14242;BME280;7205;50.864;12.766;2022-10-15T12:27:25;97088.25;;;21.22;74.30
14242;BME280;7205;50.864;12.766;2022-10-15T12:30:17;97079.50;;;21.32;74.01
14242;BME280;7205;50.864;12.766;2022-10-15T12:32:48;97070.91;;;21.35;73.56
14242;BME280;7205;50.864;12.766;2022-10-15T12:35:23;97073.81;;;21.28;72.35
14242;BME280;7205;50.864;12.766;2022-10-15T12:37:50;97076.41;;;21.18;71.76
14242;BME280;7205;50.864;12.766;2022-10-15T12:40:26;97075.47;;;21.02;71.47
14242;BME280;7205;50.864;12.766;2022-10-15T12:42:57;97082.78;;;20.85;71.30
14242;BME280;7205;50.864;12.766;2022-10-15T12:45:31;97069.97;;;20.66;71.51
14242;BME280;7205;50.864;12.766;2022-10-15T12:48:17;97080.22;;;20.47;72.41
14242;BME280;7205;50.864;12.766;2022-10-15T12:50:45;97069.38;;;20.37;73.37
14242;BME280;7205;50.864;12.766;2022-10-15T12:53:30;97073.16;;;20.41;75.36
14242;BME280;7205;50.864;12.766;2022-10-15T12:56:12;97074.84;;;20.69;76.57
14242;BME280;7205;50.864;12.766;2022-10-15T12:58:48;97073.16;;;20.89;75.41
14242;BME280;7205;50.864;12.766;2022-10-15T13:01:29;97065.16;;;20.94;74.01
14242;BME280;7205;50.864;12.766;2022-10-15T13:04:17;97064.34;;;20.94;73.74
14242;BME280;7205;50.864;12.766;2022-10-15T13:06:44;97060.78;;;20.88;73.30
14242;BME280;7205;50.864;12.766;2022-10-15T13:09:29;97063.63;;;20.77;72.57
14242;BME280;7205;50.864;12.766;2022-10-15T13:11:58;97071.63;;;20.72;72.75
14242;BME280;7205;50.864;12.766;2022-10-15T13:14:30;97077.06;;;20.77;73.12
14242;BME280;7205;50.864;12.766;2022-10-15T13:17:00;97073.91;;;20.85;73.35
14242;BME280;7205;50.864;12.766;2022-10-15T13:19:30;97071.56;;;20.93;72.75